Time;durP1;ratioP1;P1;durP2;ratioP2;P2;SDS_P1;SDS_P2;PMS_P1;PMS_P2;Temp;Humidity;BMP_temperature;BMP_pressure;BME280_temperature;BME280_humidity;BME280_pressure;Samples;Min_cycle;Max_cycle;Signal;HPM_P1;HPM_P2
2023/07/02 00:00:06;;;;;;;4.63;3.70;;;;;;;;;;5052256;28;20494;-50
2023/07/02 00:02:32;;;;;;;3.60;3.30;;;;;;;;;;5052223;28;20583;-46
2023/07/02 00:04:58;;;;;;;3.50;3.20;;;;;;;;;;5052132;28;20388;-50
2023/07/02 00:07:25;;;;;;;6.60;3.77;;;;;;;;;;5051881;28;20461;-50
2023/07/02 00:09:52;;;;;;;9.93;3.90;;;;;;;;;;5052107;28;20439;-48
2023/07/02 00:12:19;;;;;;;6.93;4.03;;;;;;;;;;5051982;28;20784;-45
2023/07/02 00:14:45;;;;;;;3.90;3.60;;;;;;;;;;5052063;28;20375;-45
2023/07/02 00:17:14;;;;;;;4.27;3.87;;;;;;;;;;5052060;28;20454;-45
2023/07/02 00:19:41;;;;;;;4.53;3.90;;;;;;;;;;5051548;28;20948;-50
2023/07/02 00:22:07;;;;;;;4.93;3.50;;;;;;;;;;5051955;28;20961;-46
2023/07/02 00:24:33;;;;;;;5.93;4.40;;;;;;;;;;5051880;28;20417;-46
2023/07/02 00:26:59;;;;;;;4.37;3.83;;;;;;;;;;5051819;28;20491;-46
2023/07/02 00:29:25;;;;;;;4.40;3.47;;;;;;;;;;5051750;28;20422;-47
2023/07/02 00:31:51;;;;;;;4.47;3.90;;;;;;;;;;5051468;28;20780;-47
2023/07/02 00:34:18;;;;;;;4.00;3.70;;;;;;;;;;5051626;28;20381;-47
2023/07/02 00:36:44;;;;;;;5.90;3.63;;;;;;;;;;5052236;28;20949;-50
2023/07/02 00:39:13;;;;;;;4.47;4.07;;;;;;;;;;5051562;28;20483;-50
2023/07/02 00:41:41;;;;;;;3.97;3.60;;;;;;;;;;5051374;28;20532;-50
2023/07/02 00:44:08;;;;;;;4.97;3.80;;;;;;;;;;5051529;28;20665;-50
2023/07/02 00:46:34;;;;;;;8.53;4.50;;;;;;;;;;5039719;28;20411;-49
2023/07/02 00:49:02;;;;;;;4.60;4.00;;;;;;;;;;5051449;28;20743;-48
2023/07/02 00:51:28;;;;;;;4.23;3.70;;;;;;;;;;5051247;28;20438;-50
2023/07/02 00:53:55;;;;;;;7.13;3.80;;;;;;;;;;5051405;28;20862;-50
2023/07/02 00:56:22;;;;;;;6.17;4.10;;;;;;;;;;5051405;28;20407;-48
2023/07/02 00:58:50;;;;;;;7.10;4.30;;;;;;;;;;5051531;28;20870;-48
2023/07/02 01:01:20;;;;;;;8.03;4.20;;;;;;;;;;5051094;28;20427;-50
2023/07/02 01:03:53;;;;;;;5.17;4.20;;;;;;;;;;5051253;28;20458;-49
2023/07/02 01:06:24;;;;;;;7.07;4.27;;;;;;;;;;5050865;28;20935;-50
2023/07/02 01:08:50;;;;;;;7.20;4.00;;;;;;;;;;5051420;28;20442;-50
2023/07/02 01:11:17;;;;;;;8.30;4.87;;;;;;;;;;5051283;28;20436;-50
2023/07/02 01:13:44;;;;;;;6.27;4.73;;;;;;;;;;5051208;28;20411;-50
2023/07/02 01:16:10;;;;;;;5.10;3.90;;;;;;;;;;5051132;28;20410;-48
2023/07/02 01:18:38;;;;;;;4.93;4.30;;;;;;;;;;5051155;28;20463;-50
2023/07/02 01:21:06;;;;;;;7.27;4.40;;;;;;;;;;5047377;28;20400;-48
2023/07/02 01:23:32;;;;;;;8.67;4.73;;;;;;;;;;5047002;28;20807;-50
2023/07/02 01:25:59;;;;;;;4.97;4.47;;;;;;;;;;5051282;28;20491;-50
2023/07/02 01:28:25;;;;;;;12.50;5.30;;;;;;;;;;5052596;28;20486;-48
2023/07/02 01:30:51;;;;;;;7.40;4.20;;;;;;;;;;5057238;28;20606;-50
2023/07/02 01:33:16;;;;;;;6.23;4.50;;;;;;;;;;5051177;28;20395;-46
2023/07/02 01:35:42;;;;;;;9.13;5.20;;;;;;;;;;5051005;28;20426;-45
2023/07/02 01:38:08;;;;;;;13.03;4.70;;;;;;;;;;5051026;28;20467;-47
2023/07/02 01:40:34;;;;;;;8.47;4.97;;;;;;;;;;5058103;28;20422;-48
2023/07/02 01:43:00;;;;;;;8.20;5.00;;;;;;;;;;5050932;28;20891;-47
2023/07/02 01:45:26;;;;;;;8.83;4.97;;;;;;;;;;5041497;28;20971;-47
2023/07/02 01:47:52;;;;;;;8.90;5.60;;;;;;;;;;5050803;28;20436;-48
2023/07/02 01:50:18;;;;;;;6.30;5.13;;;;;;;;;;5050616;28;20436;-46
2023/07/02 01:52:44;;;;;;;8.60;4.93;;;;;;;;;;5039472;28;20389;-50
2023/07/02 01:55:12;;;;;;;10.00;5.57;;;;;;;;;;5051310;28;20387;-50
2023/07/02 01:57:38;;;;;;;7.80;4.97;;;;;;;;;;5045504;28;20403;-49
2023/07/02 02:00:04;;;;;;;8.10;4.37;;;;;;;;;;5054414;28;20423;-49
2023/07/02 02:02:30;;;;;;;10.33;5.10;;;;;;;;;;5054591;28;20427;-50
2023/07/02 02:04:56;;;;;;;6.60;4.20;;;;;;;;;;5054463;28;20511;-50
2023/07/02 02:07:22;;;;;;;8.90;4.47;;;;;;;;;;5054360;28;20436;-49
2023/07/02 02:09:48;;;;;;;9.03;5.23;;;;;;;;;;5054211;28;20413;-50
2023/07/02 02:12:14;;;;;;;11.67;5.10;;;;;;;;;;5054216;28;20763;-49
2023/07/02 02:14:40;;;;;;;7.70;4.90;;;;;;;;;;5054278;28;20829;-49
2023/07/02 02:17:06;;;;;;;10.07;5.40;;;;;;;;;;5054266;28;20419;-49
2023/07/02 02:19:35;;;;;;;10.37;5.13;;;;;;;;;;5054290;28;20421;-49
2023/07/02 02:22:01;;;;;;;13.10;4.50;;;;;;;;;;5054078;28;20390;-47
2023/07/02 02:24:27;;;;;;;15.83;5.30;;;;;;;;;;5054214;28;20392;-48
2023/07/02 02:26:53;;;;;;;8.80;4.93;;;;;;;;;;5053976;28;20924;-49
2023/07/02 02:29:19;;;;;;;7.30;5.20;;;;;;;;;;5054022;28;20395;-46
2023/07/02 02:31:45;;;;;;;8.63;5.60;;;;;;;;;;5053706;28;20441;-46
2023/07/02 02:34:11;;;;;;;10.43;5.30;;;;;;;;;;5053825;28;20379;-47
2023/07/02 02:36:37;;;;;;;9.70;5.60;;;;;;;;;;5053785;28;20473;-47
2023/07/02 02:39:03;;;;;;;9.03;5.63;;;;;;;;;;5053952;28;20405;-47
2023/07/02 02:41:28;;;;;;;9.90;5.73;;;;;;;;;;5053367;28;20384;-51
2023/07/02 02:43:54;;;;;;;12.60;5.53;;;;;;;;;;5053855;28;20826;-50
2023/07/02 02:46:21;;;;;;;10.17;6.10;;;;;;;;;;5053516;28;20415;-49
2023/07/02 02:48:47;;;;;;;12.00;7.03;;;;;;;;;;5053010;28;20950;-46
2023/07/02 02:51:13;;;;;;;14.50;8.43;;;;;;;;;;5053558;28;20549;-46
2023/07/02 02:53:39;;;;;;;13.60;6.10;;;;;;;;;;5053412;28;20385;-45
2023/07/02 02:56:05;;;;;;;11.27;7.30;;;;;;;;;;5053459;28;20891;-48
2023/07/02 02:58:31;;;;;;;12.30;6.90;;;;;;;;;;5053625;28;20401;-48
2023/07/02 03:00:57;;;;;;;15.30;7.50;;;;;;;;;;5053206;28;20550;-45
2023/07/02 03:03:24;;;;;;;13.57;6.60;;;;;;;;;;5053424;28;20405;-45
2023/07/02 03:05:50;;;;;;;13.43;7.57;;;;;;;;;;5053404;28;20865;-46
2023/07/02 03:08:16;;;;;;;12.37;6.53;;;;;;;;;;5052559;28;20451;-49
2023/07/02 03:10:42;;;;;;;16.10;8.27;;;;;;;;;;5052924;28;20461;-45
2023/07/02 03:13:08;;;;;;;12.47;7.80;;;;;;;;;;5053300;28;20389;-45
2023/07/02 03:15:34;;;;;;;19.80;10.00;;;;;;;;;;5053053;28;20416;-45
2023/07/02 03:18:00;;;;;;;13.13;7.63;;;;;;;;;;5053076;28;20432;-45
2023/07/02 03:20:25;;;;;;;14.80;7.20;;;;;;;;;;5052845;28;20450;-46
2023/07/02 03:22:51;;;;;;;13.73;8.17;;;;;;;;;;5053109;28;20415;-46
2023/07/02 03:25:17;;;;;;;18.50;9.67;;;;;;;;;;5052837;28;20416;-48
2023/07/02 03:27:43;;;;;;;17.40;7.80;;;;;;;;;;5052856;28;20422;-49
2023/07/02 03:30:09;;;;;;;13.40;7.20;;;;;;;;;;5052605;28;20919;-45
2023/07/02 03:32:35;;;;;;;17.93;7.83;;;;;;;;;;5052786;28;20454;-45
2023/07/02 03:35:01;;;;;;;18.67;9.03;;;;;;;;;;5052805;28;20416;-47
2023/07/02 03:37:27;;;;;;;16.47;8.67;;;;;;;;;;5052588;28;20433;-45
2023/07/02 03:39:53;;;;;;;17.93;9.00;;;;;;;;;;5052400;28;20888;-45
2023/07/02 03:42:19;;;;;;;20.63;9.40;;;;;;;;;;5052979;28;20394;-46
2023/07/02 03:44:45;;;;;;;20.67;8.70;;;;;;;;;;5052557;28;20604;-45
2023/07/02 03:47:12;;;;;;;15.73;9.47;;;;;;;;;;5052536;28;20942;-47
2023/07/02 03:49:38;;;;;;;16.50;8.57;;;;;;;;;;5045460;28;20386;-46
2023/07/02 03:52:04;;;;;;;19.30;9.70;;;;;;;;;;5052439;28;20383;-45
2023/07/02 03:54:30;;;;;;;14.73;8.27;;;;;;;;;;5052290;28;20569;-46
2023/07/02 03:56:56;;;;;;;17.23;9.57;;;;;;;;;;5052389;28;20501;-45
2023/07/02 03:59:23;;;;;;;12.43;9.00;;;;;;;;;;5052201;28;20420;-45
2023/07/02 04:01:49;;;;;;;16.07;8.10;;;;;;;;;;5052194;28;20386;-45
2023/07/02 04:04:15;;;;;;;16.03;9.50;;;;;;;;;;5052270;28;20466;-46
2023/07/02 04:06:41;;;;;;;17.53;10.40;;;;;;;;;;5052100;28;20842;-45
2023/07/02 04:09:07;;;;;;;20.17;11.43;;;;;;;;;;5052145;28;20486;-45
2023/07/02 04:11:33;;;;;;;16.27;9.40;;;;;;;;;;5051773;28;20450;-46
2023/07/02 04:13:59;;;;;;;18.37;9.47;;;;;;;;;;5051961;28;20498;-48
2023/07/02 04:16:25;;;;;;;17.97;8.97;;;;;;;;;;5051966;28;20824;-50
2023/07/02 04:18:51;;;;;;;15.37;9.83;;;;;;;;;;5052116;28;20751;-45
2023/07/02 04:21:17;;;;;;;20.17;9.90;;;;;;;;;;5050871;28;20411;-48
2023/07/02 04:23:42;;;;;;;18.80;9.93;;;;;;;;;;5051762;28;20492;-46
2023/07/02 04:26:10;;;;;;;19.30;10.70;;;;;;;;;;5051955;28;20457;-45
2023/07/02 04:28:36;;;;;;;19.73;10.73;;;;;;;;;;5051789;28;20427;-48
2023/07/02 04:31:02;;;;;;;16.47;9.27;;;;;;;;;;5051817;28;20436;-48
2023/07/02 04:33:35;;;;;;;15.63;8.90;;;;;;;;;;5051577;28;20407;-45
2023/07/02 04:36:01;;;;;;;19.60;11.07;;;;;;;;;;5051721;28;20391;-46
2023/07/02 04:38:28;;;;;;;20.13;10.70;;;;;;;;;;5051888;28;20399;-46
2023/07/02 04:40:54;;;;;;;23.20;10.83;;;;;;;;;;5051510;28;20494;-46
2023/07/02 04:43:20;;;;;;;19.50;10.87;;;;;;;;;;5051530;28;20443;-45
2023/07/02 04:45:48;;;;;;;16.57;9.17;;;;;;;;;;5051558;28;20392;-46
2023/07/02 04:48:14;;;;;;;19.50;10.50;;;;;;;;;;5051454;28;20516;-46
2023/07/02 04:50:40;;;;;;;20.33;10.00;;;;;;;;;;5051209;28;20889;-45
2023/07/02 04:53:05;;;;;;;21.70;11.63;;;;;;;;;;5051122;28;20913;-48
2023/07/02 04:55:31;;;;;;;16.47;10.30;;;;;;;;;;5046715;28;20441;-49
2023/07/02 04:57:57;;;;;;;26.47;12.23;;;;;;;;;;5051418;28;20473;-46
2023/07/02 05:00:23;;;;;;;28.40;12.60;;;;;;;;;;5058946;28;20471;-47
2023/07/02 05:02:49;;;;;;;20.20;11.60;;;;;;;;;;5051424;28;20408;-45
2023/07/02 05:05:16;;;;;;;30.37;12.83;;;;;;;;;;5051227;28;20480;-45
2023/07/02 05:07:42;;;;;;;18.13;10.80;;;;;;;;;;5051191;28;20855;-46
2023/07/02 05:10:08;;;;;;;21.13;11.20;;;;;;;;;;5051129;28;20463;-46
2023/07/02 05:12:35;;;;;;;24.10;13.97;;;;;;;;;;5056620;28;20416;-48
2023/07/02 05:15:01;;;;;;;20.03;10.87;;;;;;;;;;5051234;28;20458;-46
2023/07/02 05:17:27;;;;;;;19.20;10.97;;;;;;;;;;5051269;28;20542;-48
2023/07/02 05:19:53;;;;;;;22.93;11.20;;;;;;;;;;5051548;28;20869;-47
2023/07/02 05:22:20;;;;;;;24.57;12.30;;;;;;;;;;5051274;28;20422;-51
2023/07/02 05:24:46;;;;;;;21.03;10.90;;;;;;;;;;5051153;28;20405;-49
2023/07/02 05:27:12;;;;;;;23.07;11.87;;;;;;;;;;5051058;28;20404;-48
2023/07/02 05:29:38;;;;;;;25.13;13.17;;;;;;;;;;5050998;28;20469;-49
2023/07/02 05:32:04;;;;;;;20.00;10.17;;;;;;;;;;5053256;28;20511;-46
2023/07/02 05:34:30;;;;;;;24.77;14.03;;;;;;;;;;5054987;28;20416;-47
2023/07/02 05:36:56;;;;;;;21.33;11.87;;;;;;;;;;5055107;28;20884;-46
2023/07/02 05:39:22;;;;;;;23.23;13.13;;;;;;;;;;5054483;28;20417;-47
2023/07/02 05:41:48;;;;;;;21.20;12.50;;;;;;;;;;5055029;28;20440;-47
2023/07/02 05:44:14;;;;;;;24.83;14.30;;;;;;;;;;5048020;28;20423;-47
2023/07/02 05:46:40;;;;;;;21.20;13.67;;;;;;;;;;5054922;28;20838;-47
2023/07/02 05:49:06;;;;;;;22.40;13.20;;;;;;;;;;5059682;28;20407;-47
2023/07/02 05:51:32;;;;;;;29.53;14.23;;;;;;;;;;5044918;28;20955;-46
2023/07/02 05:53:58;;;;;;;22.23;12.80;;;;;;;;;;5054914;28;20401;-50
2023/07/02 05:56:24;;;;;;;25.50;14.00;;;;;;;;;;5064742;28;20444;-47
2023/07/02 05:58:50;;;;;;;26.53;13.77;;;;;;;;;;5058315;28;20407;-47
2023/07/02 06:01:16;;;;;;;35.63;13.57;;;;;;;;;;5054396;28;20466;-47
2023/07/02 06:03:45;;;;;;;26.53;13.70;;;;;;;;;;5054479;28;20474;-47
2023/07/02 06:06:11;;;;;;;28.17;12.90;;;;;;;;;;5054227;28;20405;-48
2023/07/02 06:08:37;;;;;;;28.50;14.40;;;;;;;;;;5054464;28;20757;-49
2023/07/02 06:11:03;;;;;;;24.60;12.80;;;;;;;;;;5055281;28;20444;-47
2023/07/02 06:13:29;;;;;;;23.27;13.47;;;;;;;;;;5055317;28;20399;-47
2023/07/02 06:15:55;;;;;;;21.57;12.93;;;;;;;;;;5054181;28;20877;-47
2023/07/02 06:18:21;;;;;;;22.13;13.13;;;;;;;;;;5053975;28;20436;-48
2023/07/02 06:20:47;;;;;;;25.23;14.60;;;;;;;;;;5053933;28;20414;-47
2023/07/02 06:23:13;;;;;;;22.47;13.63;;;;;;;;;;5054676;28;20388;-49
2023/07/02 06:25:38;;;;;;;22.27;13.33;;;;;;;;;;5053967;28;20387;-50
2023/07/02 06:28:04;;;;;;;37.93;14.67;;;;;;;;;;5054091;28;20430;-50
2023/07/02 06:30:30;;;;;;;24.10;13.80;;;;;;;;;;5053656;28;20450;-48
2023/07/02 06:32:56;;;;;;;25.90;14.03;;;;;;;;;;5048272;28;20864;-51
2023/07/02 06:35:22;;;;;;;21.30;12.30;;;;;;;;;;5053828;28;20392;-51
2023/07/02 06:37:48;;;;;;;30.80;13.80;;;;;;;;;;5053792;28;20437;-50
2023/07/02 06:40:14;;;;;;;21.40;15.30;;;;;;;;;;5053267;28;20399;-50
2023/07/02 06:42:40;;;;;;;21.10;13.50;;;;;;;;;;5053108;28;20736;-51
2023/07/02 06:45:07;;;;;;;25.07;14.83;;;;;;;;;;5053367;28;20379;-51
2023/07/02 06:47:33;;;;;;;23.40;13.30;;;;;;;;;;5043377;28;21059;-51
2023/07/02 06:49:59;;;;;;;26.80;13.40;;;;;;;;;;5053388;28;20509;-51
2023/07/02 06:52:25;;;;;;;22.20;13.50;;;;;;;;;;5053292;28;20910;-51
2023/07/02 06:54:51;;;;;;;26.57;13.70;;;;;;;;;;5053401;28;20770;-51
2023/07/02 06:57:17;;;;;;;23.80;12.60;;;;;;;;;;5053222;28;20406;-51
2023/07/02 06:59:43;;;;;;;27.00;13.23;;;;;;;;;;5053073;28;20393;-48
2023/07/02 07:02:09;;;;;;;22.87;13.60;;;;;;;;;;5053011;28;20936;-48
2023/07/02 07:04:35;;;;;;;21.83;12.73;;;;;;;;;;5052962;28;20393;-49
2023/07/02 07:07:02;;;;;;;20.57;12.37;;;;;;;;;;5052013;28;20423;-45
2023/07/02 07:09:28;;;;;;;34.47;14.80;;;;;;;;;;5053091;28;20446;-46
2023/07/02 07:11:54;;;;;;;20.90;12.00;;;;;;;;;;5052712;28;20458;-46
2023/07/02 07:14:20;;;;;;;24.63;13.37;;;;;;;;;;5052781;28;20804;-49
2023/07/02 07:16:46;;;;;;;22.43;12.20;;;;;;;;;;5052960;28;20745;-47
2023/07/02 07:19:12;;;;;;;22.77;13.47;;;;;;;;;;5053192;28;20832;-48
2023/07/02 07:21:38;;;;;;;26.50;12.03;;;;;;;;;;5052699;28;20402;-49
2023/07/02 07:24:04;;;;;;;22.80;10.30;;;;;;;;;;5052718;28;20797;-51
2023/07/02 07:26:30;;;;;;;17.13;9.50;;;;;;;;;;5050359;28;20931;-49
2023/07/02 07:28:57;;;;;;;22.87;10.20;;;;;;;;;;5052630;28;20407;-50
2023/07/02 07:31:23;;;;;;;20.83;9.90;;;;;;;;;;5052307;28;20473;-50
2023/07/02 07:33:49;;;;;;;18.60;10.40;;;;;;;;;;5052725;28;20467;-49
2023/07/02 07:36:15;;;;;;;16.47;9.53;;;;;;;;;;5052645;28;20476;-49
2023/07/02 07:38:43;;;;;;;20.50;10.57;;;;;;;;;;5052791;28;20406;-50
2023/07/02 07:41:09;;;;;;;28.87;11.23;;;;;;;;;;5052419;28;20771;-46
2023/07/02 07:43:35;;;;;;;19.30;10.23;;;;;;;;;;5052183;28;20401;-50
2023/07/02 07:46:01;;;;;;;17.80;10.43;;;;;;;;;;5052236;28;20390;-50
2023/07/02 07:48:27;;;;;;;19.60;10.40;;;;;;;;;;5052218;28;20478;-50
2023/07/02 07:50:53;;;;;;;18.67;9.77;;;;;;;;;;5052352;28;20429;-51
2023/07/02 07:53:19;;;;;;;19.50;10.70;;;;;;;;;;5052160;28;20466;-50
2023/07/02 07:55:45;;;;;;;21.83;10.87;;;;;;;;;;5052410;28;20379;-51
2023/07/02 07:58:11;;;;;;;21.07;10.47;;;;;;;;;;5051929;28;20416;-50
2023/07/02 08:00:37;;;;;;;18.60;10.10;;;;;;;;;;5051987;28;20450;-50
2023/07/02 08:03:03;;;;;;;19.03;9.30;;;;;;;;;;5052229;28;20454;-50
2023/07/02 08:05:29;;;;;;;16.47;8.87;;;;;;;;;;5052153;28;20469;-49
2023/07/02 08:07:55;;;;;;;22.27;9.50;;;;;;;;;;5051753;28;20942;-50
2023/07/02 08:10:21;;;;;;;16.43;8.90;;;;;;;;;;5051651;28;20434;-50
2023/07/02 08:12:48;;;;;;;18.57;9.87;;;;;;;;;;5052002;28;20780;-49
2023/07/02 08:15:14;;;;;;;22.70;9.43;;;;;;;;;;5051774;28;20385;-49
2023/07/02 08:17:40;;;;;;;19.33;9.93;;;;;;;;;;5051970;28;20502;-49
2023/07/02 08:20:09;;;;;;;13.43;8.40;;;;;;;;;;5051556;28;20515;-51
2023/07/02 08:22:36;;;;;;;18.00;9.83;;;;;;;;;;5051819;28;20945;-50
2023/07/02 08:25:02;;;;;;;22.80;11.23;;;;;;;;;;5051634;28;20749;-50
2023/07/02 08:27:28;;;;;;;15.50;9.30;;;;;;;;;;5051626;28;20410;-45
2023/07/02 08:29:54;;;;;;;17.90;9.47;;;;;;;;;;5051349;28;20747;-46
2023/07/02 08:32:20;;;;;;;22.40;10.20;;;;;;;;;;5051536;28;20470;-47
2023/07/02 08:34:46;;;;;;;19.30;10.33;;;;;;;;;;5051841;28;20833;-49
2023/07/02 08:37:12;;;;;;;17.77;10.53;;;;;;;;;;5051634;28;20424;-50
2023/07/02 08:39:39;;;;;;;26.13;10.97;;;;;;;;;;5051339;28;20843;-47
2023/07/02 08:42:05;;;;;;;25.43;9.37;;;;;;;;;;5051249;28;20416;-50
2023/07/02 08:44:32;;;;;;;19.90;10.40;;;;;;;;;;5051399;28;20792;-48
2023/07/02 08:46:58;;;;;;;19.70;8.70;;;;;;;;;;5051444;28;20934;-50
2023/07/02 08:49:24;;;;;;;15.33;10.47;;;;;;;;;;5051349;28;20927;-48
2023/07/02 08:51:50;;;;;;;19.53;9.50;;;;;;;;;;5041531;28;20455;-48
2023/07/02 08:54:20;;;;;;;18.40;10.40;;;;;;;;;;5051213;28;20441;-50
2023/07/02 08:56:46;;;;;;;15.47;8.90;;;;;;;;;;5051258;28;21036;-50
2023/07/02 08:59:12;;;;;;;18.33;10.10;;;;;;;;;;5051330;28;20416;-48
2023/07/02 09:01:48;;;;;;;19.07;10.90;;;;;;;;;;5051406;28;20416;-45
2023/07/02 09:04:21;;;;;;;16.63;8.60;;;;;;;;;;5051111;28;20443;-45
2023/07/02 09:06:47;;;;;;;12.13;7.40;;;;;;;;;;5036209;28;20442;-48
2023/07/02 09:09:14;;;;;;;20.87;8.23;;;;;;;;;;5047732;28;20454;-49
2023/07/02 09:11:52;;;;;;;14.97;8.07;;;;;;;;;;5050955;28;20460;-49
2023/07/02 09:14:28;;;;;;;18.70;7.10;;;;;;;;;;5050954;28;20405;-46
2023/07/02 09:17:04;;;;;;;12.17;7.47;;;;;;;;;;5051055;28;20429;-50
2023/07/02 09:19:30;;;;;;;11.30;7.50;;;;;;;;;;5051505;28;20405;-50
2023/07/02 09:21:59;;;;;;;12.30;6.80;;;;;;;;;;5036813;28;20482;-50
2023/07/02 09:24:25;;;;;;;16.43;7.03;;;;;;;;;;5050995;28;20418;-49
2023/07/02 09:26:55;;;;;;;14.50;7.80;;;;;;;;;;5050879;28;20425;-50
2023/07/02 09:29:26;;;;;;;16.37;7.40;;;;;;;;;;5050235;28;20907;-48
2023/07/02 09:31:52;;;;;;;13.07;7.00;;;;;;;;;;5048049;28;20464;-48
2023/07/02 09:34:18;;;;;;;17.33;7.13;;;;;;;;;;5051024;28;20409;-47
2023/07/02 09:36:44;;;;;;;15.27;6.90;;;;;;;;;;5051061;28;20919;-46
2023/07/02 09:39:15;;;;;;;8.53;6.53;;;;;;;;;;5037293;28;20487;-51
2023/07/02 09:41:45;;;;;;;12.70;6.30;;;;;;;;;;5033139;28;20450;-46
2023/07/02 09:44:12;;;;;;;14.40;7.90;;;;;;;;;;5051085;28;20429;-49
2023/07/02 09:46:41;;;;;;;11.73;7.37;;;;;;;;;;5050595;28;20436;-48
2023/07/02 09:49:08;;;;;;;17.90;7.43;;;;;;;;;;5038603;28;20423;-48
2023/07/02 09:51:35;;;;;;;19.00;7.90;;;;;;;;;;5040415;28;20460;-47
2023/07/02 09:54:00;;;;;;;16.00;7.80;;;;;;;;;;5049899;28;20837;-49
2023/07/02 09:56:26;;;;;;;11.43;6.83;;;;;;;;;;5050741;28;20641;-47
2023/07/02 09:58:52;;;;;;;12.47;7.07;;;;;;;;;;5050883;28;20421;-45
2023/07/02 10:01:18;;;;;;;16.57;7.77;;;;;;;;;;5056880;28;20416;-46
2023/07/02 10:03:45;;;;;;;10.33;7.87;;;;;;;;;;5041413;28;20421;-47
2023/07/02 10:06:11;;;;;;;16.40;8.70;;;;;;;;;;5032707;28;20441;-48
2023/07/02 10:08:37;;;;;;;13.33;8.37;;;;;;;;;;5041702;28;20437;-49
2023/07/02 10:11:09;;;;;;;19.40;8.10;;;;;;;;;;5036179;28;20454;-47
2023/07/02 10:13:35;;;;;;;13.80;8.23;;;;;;;;;;5050599;28;20975;-45
2023/07/02 10:16:02;;;;;;;18.60;8.60;;;;;;;;;;5041350;28;20413;-50
2023/07/02 10:18:28;;;;;;;15.50;7.80;;;;;;;;;;5051224;28;20920;-49
2023/07/02 10:20:54;;;;;;;13.87;8.70;;;;;;;;;;5052677;28;20408;-49
2023/07/02 10:23:20;;;;;;;17.40;9.07;;;;;;;;;;5054393;28;20414;-45
2023/07/02 10:25:46;;;;;;;13.67;8.07;;;;;;;;;;5043938;28;20437;-46
2023/07/02 10:28:19;;;;;;;15.33;8.10;;;;;;;;;;5054343;28;20437;-47
2023/07/02 10:30:45;;;;;;;14.83;8.77;;;;;;;;;;5036591;28;20460;-50
2023/07/02 10:33:12;;;;;;;16.70;7.53;;;;;;;;;;5054731;28;20758;-50
2023/07/02 10:35:39;;;;;;;12.97;7.80;;;;;;;;;;5036711;28;20410;-50
2023/07/02 10:38:08;;;;;;;22.70;8.30;;;;;;;;;;5054407;28;20429;-50
2023/07/02 10:40:34;;;;;;;13.73;8.70;;;;;;;;;;5059950;28;20425;-49
2023/07/02 10:43:00;;;;;;;16.70;8.70;;;;;;;;;;5053778;28;20567;-49
2023/07/02 10:45:33;;;;;;;15.73;8.47;;;;;;;;;;5053553;28;20450;-49
2023/07/02 10:47:59;;;;;;;14.67;8.73;;;;;;;;;;5053480;28;20425;-50
2023/07/02 10:50:27;;;;;;;14.23;8.47;;;;;;;;;;5053149;28;20457;-50
2023/07/02 10:52:53;;;;;;;15.80;7.90;;;;;;;;;;5053558;28;20467;-51
2023/07/02 10:55:22;;;;;;;12.93;8.33;;;;;;;;;;5053352;28;20786;-51
2023/07/02 10:57:52;;;;;;;16.73;9.27;;;;;;;;;;5053539;28;20437;-52
2023/07/02 11:00:18;;;;;;;13.70;7.43;;;;;;;;;;5053171;28;20424;-47
2023/07/02 11:02:44;;;;;;;15.00;8.80;;;;;;;;;;5047694;28;20765;-50
2023/07/02 11:05:14;;;;;;;19.37;9.37;;;;;;;;;;5049706;28;20459;-50
2023/07/02 11:07:40;;;;;;;13.40;8.40;;;;;;;;;;5044276;28;20473;-48
2023/07/02 11:10:07;;;;;;;18.43;7.47;;;;;;;;;;5052595;28;20463;-49
2023/07/02 11:12:33;;;;;;;13.47;9.33;;;;;;;;;;5052964;28;20417;-50
2023/07/02 11:15:09;;;;;;;14.17;8.33;;;;;;;;;;5053084;28;20757;-50
2023/07/02 11:17:35;;;;;;;15.50;7.90;;;;;;;;;;5053249;28;20524;-49
2023/07/02 11:20:01;;;;;;;14.17;7.33;;;;;;;;;;5053135;28;20499;-48
2023/07/02 11:22:33;;;;;;;19.00;8.90;;;;;;;;;;5053087;28;20794;-51
2023/07/02 11:25:18;;;;;;;9.57;6.87;;;;;;;;;;5053341;28;20769;-48
2023/07/02 11:27:45;;;;;;;15.50;9.17;;;;;;;;;;5045946;28;21056;-50
2023/07/02 11:30:11;;;;;;;17.00;8.47;;;;;;;;;;5052362;28;20409;-51
2023/07/02 11:32:54;;;;;;;14.57;8.10;;;;;;;;;;5052877;28;20408;-50
2023/07/02 11:35:21;;;;;;;19.43;8.20;;;;;;;;;;5052776;28;20414;-50
2023/07/02 11:37:48;;;;;;;17.13;7.23;;;;;;;;;;5053092;28;20432;-51
2023/07/02 11:40:14;;;;;;;12.63;6.80;;;;;;;;;;5052521;28;20417;-48
2023/07/02 11:42:41;;;;;;;10.50;7.57;;;;;;;;;;5052857;28;20986;-51
2023/07/02 11:45:07;;;;;;;12.03;7.77;;;;;;;;;;5052734;28;20409;-49
2023/07/02 11:47:33;;;;;;;13.90;8.37;;;;;;;;;;5052498;28;20518;-49
2023/07/02 11:49:59;;;;;;;17.83;7.20;;;;;;;;;;5052374;28;20499;-51
2023/07/02 11:52:25;;;;;;;10.60;7.40;;;;;;;;;;5052534;28;20408;-51
2023/07/02 11:54:51;;;;;;;28.57;8.00;;;;;;;;;;5052465;28;20743;-51
2023/07/02 11:57:17;;;;;;;14.93;6.10;;;;;;;;;;5052344;28;20478;-51
2023/07/02 11:59:43;;;;;;;9.63;6.03;;;;;;;;;;5052075;28;20503;-50
2023/07/02 12:02:09;;;;;;;12.00;6.13;;;;;;;;;;5052379;28;20417;-50
2023/07/02 12:04:35;;;;;;;12.10;6.73;;;;;;;;;;5052405;28;20417;-51
2023/07/02 12:07:03;;;;;;;8.30;6.90;;;;;;;;;;5052210;28;20805;-51
2023/07/02 12:09:29;;;;;;;14.57;6.37;;;;;;;;;;5052237;28;20983;-49
2023/07/02 12:11:55;;;;;;;15.77;6.53;;;;;;;;;;5051934;28;20959;-48
2023/07/02 12:14:21;;;;;;;22.33;7.67;;;;;;;;;;5051959;28;20416;-48
2023/07/02 12:16:48;;;;;;;11.60;6.13;;;;;;;;;;5052078;28;20436;-49
2023/07/02 12:19:14;;;;;;;14.30;5.37;;;;;;;;;;5051985;28;20417;-51
2023/07/02 12:21:40;;;;;;;20.53;8.17;;;;;;;;;;5051888;28;20420;-51
2023/07/02 12:24:09;;;;;;;19.23;8.00;;;;;;;;;;5051969;28;20416;-50
2023/07/02 12:26:35;;;;;;;9.70;6.07;;;;;;;;;;5051871;28;20542;-51
2023/07/02 12:29:01;;;;;;;9.20;5.97;;;;;;;;;;5051971;28;20449;-50
2023/07/02 12:31:27;;;;;;;14.70;6.73;;;;;;;;;;5051554;28;20864;-50
2023/07/02 12:33:53;;;;;;;10.90;5.90;;;;;;;;;;5052039;28;20805;-50
2023/07/02 12:36:19;;;;;;;15.90;6.33;;;;;;;;;;5051837;28;20772;-51
2023/07/02 12:38:45;;;;;;;11.03;6.00;;;;;;;;;;5051836;28;20748;-50
2023/07/02 12:41:11;;;;;;;14.33;6.30;;;;;;;;;;5050887;28;20797;-49
2023/07/02 12:43:37;;;;;;;11.90;6.03;;;;;;;;;;5051475;28;20836;-48
2023/07/02 12:46:03;;;;;;;11.77;5.50;;;;;;;;;;5051670;28;20496;-48
2023/07/02 12:48:29;;;;;;;10.63;5.40;;;;;;;;;;5051518;28;20425;-51
2023/07/02 12:51:00;;;;;;;6.57;5.10;;;;;;;;;;5051312;28;20510;-50
2023/07/02 12:53:26;;;;;;;53.27;10.97;;;;;;;;;;5051516;28;20422;-51
2023/07/02 12:55:54;;;;;;;35.07;9.90;;;;;;;;;;5051521;28;20980;-50
2023/07/02 12:58:20;;;;;;;21.67;6.60;;;;;;;;;;5051333;28;20440;-49
2023/07/02 13:00:47;;;;;;;7.73;5.33;;;;;;;;;;5051117;28;20477;-51
2023/07/02 13:03:13;;;;;;;16.97;5.90;;;;;;;;;;5051737;28;20756;-50
2023/07/02 13:05:40;;;;;;;13.37;5.90;;;;;;;;;;5051298;28;20410;-52
2023/07/02 13:08:06;;;;;;;11.67;5.90;;;;;;;;;;5051452;28;20425;-51
2023/07/02 13:10:38;;;;;;;19.20;6.60;;;;;;;;;;5051018;28;20488;-51
2023/07/02 13:13:05;;;;;;;10.97;6.50;;;;;;;;;;5051395;28;20419;-50
2023/07/02 13:15:32;;;;;;;12.57;6.73;;;;;;;;;;5051015;28;20405;-50
2023/07/02 13:17:58;;;;;;;12.07;6.17;;;;;;;;;;5051258;28;20425;-51
2023/07/02 13:20:23;;;;;;;10.93;6.70;;;;;;;;;;5051048;28;20421;-50
2023/07/02 13:22:50;;;;;;;9.10;5.80;;;;;;;;;;5051194;28;20452;-48
2023/07/02 13:25:15;;;;;;;13.97;7.10;;;;;;;;;;5051030;28;20748;-48
2023/07/02 13:27:41;;;;;;;12.37;6.50;;;;;;;;;;5051384;28;21064;-51
2023/07/02 13:30:08;;;;;;;14.07;6.67;;;;;;;;;;5051053;28;20922;-51
2023/07/02 13:32:35;;;;;;;13.23;6.93;;;;;;;;;;5051243;28;20447;-51
2023/07/02 13:35:01;;;;;;;9.00;5.97;;;;;;;;;;5051094;28;20492;-50
2023/07/02 13:37:27;;;;;;;12.60;6.40;;;;;;;;;;5051381;28;20521;-51
2023/07/02 13:39:53;;;;;;;11.37;5.70;;;;;;;;;;5050815;28;20915;-49
2023/07/02 13:42:19;;;;;;;8.73;6.50;;;;;;;;;;5051201;28;20405;-51
2023/07/02 13:44:46;;;;;;;9.43;6.30;;;;;;;;;;5050984;28;20412;-49
2023/07/02 13:47:12;;;;;;;11.00;6.10;;;;;;;;;;5051082;28;20436;-49
2023/07/02 13:49:38;;;;;;;9.00;6.80;;;;;;;;;;5049139;28;20405;-51
2023/07/02 13:52:05;;;;;;;10.67;7.07;;;;;;;;;;5051374;28;20597;-51
2023/07/02 13:54:31;;;;;;;9.67;6.90;;;;;;;;;;5054599;28;20420;-51
2023/07/02 13:56:57;;;;;;;10.73;6.60;;;;;;;;;;5054937;28;20425;-51
2023/07/02 13:59:23;;;;;;;10.37;7.80;;;;;;;;;;5054688;28;20972;-50
2023/07/02 14:01:49;;;;;;;9.90;6.90;;;;;;;;;;5054551;28;20417;-51
2023/07/02 14:04:16;;;;;;;15.20;6.57;;;;;;;;;;5055041;28;20441;-50
2023/07/02 14:06:43;;;;;;;13.93;6.70;;;;;;;;;;5054514;28;20451;-49
2023/07/02 14:09:09;;;;;;;12.63;6.90;;;;;;;;;;5054519;28;20421;-50
2023/07/02 14:11:36;;;;;;;11.07;7.53;;;;;;;;;;5054283;28;20467;-50
2023/07/02 14:14:02;;;;;;;15.40;7.10;;;;;;;;;;5054530;28;20419;-51
2023/07/02 14:16:28;;;;;;;11.40;7.10;;;;;;;;;;5054417;28;20897;-51
2023/07/02 14:18:54;;;;;;;10.73;7.27;;;;;;;;;;5054618;28;20416;-50
2023/07/02 14:21:20;;;;;;;11.50;7.00;;;;;;;;;;5053990;28;20408;-50
2023/07/02 14:23:46;;;;;;;12.50;7.53;;;;;;;;;;5054520;28;20420;-50